Time;durP1;ratioP1;P1;durP2;ratioP2;P2;SDS_P1;SDS_P2;PMS_P1;PMS_P2;Temp;Humidity;BMP_temperature;BMP_pressure;BME280_temperature;BME280_humidity;BME280_pressure;Samples;Min_cycle;Max_cycle;Signal;HPM_P1;HPM_P2
2022/03/18 00:00:00;;;;;;;14.18;9.60;;;;;;;;;;5035364;28;20101;-63
2022/03/18 00:02:27;;;;;;;14.90;9.35;;;;;;;;;;5035528;28;20180;-61
2022/03/18 00:04:54;;;;;;;14.40;9.10;;;;;;;;;;5035340;28;20033;-61
2022/03/18 00:07:21;;;;;;;15.18;9.20;;;;;;;;;;5035046;28;20026;-61
2022/03/18 00:09:48;;;;;;;13.57;9.23;;;;;;;;;;5035298;28;20436;-63
2022/03/18 00:12:14;;;;;;;15.25;8.77;;;;;;;;;;5035332;28;20464;-62
2022/03/18 00:14:40;;;;;;;15.35;9.35;;;;;;;;;;5034640;28;20037;-63
2022/03/18 00:17:10;;;;;;;16.55;9.73;;;;;;;;;;5034312;28;20029;-66
2022/03/18 00:19:36;;;;;;;15.55;8.98;;;;;;;;;;5049684;28;20112;-63
2022/03/18 00:22:03;;;;;;;16.10;9.93;;;;;;;;;;5034472;28;20048;-62
2022/03/18 00:24:32;;;;;;;16.20;9.80;;;;;;;;;;5034253;28;20057;-61
2022/03/18 00:26:58;;;;;;;14.48;9.27;;;;;;;;;;5034194;28;20176;-62
2022/03/18 00:29:25;;;;;;;14.93;9.18;;;;;;;;;;5049408;28;20056;-64
2022/03/18 00:31:51;;;;;;;14.32;9.35;;;;;;;;;;5033903;28;20017;-63
2022/03/18 00:34:17;;;;;;;16.42;8.95;;;;;;;;;;5034038;28;20034;-67
2022/03/18 00:36:43;;;;;;;13.38;9.00;;;;;;;;;;5036178;28;20450;-61
2022/03/18 00:39:09;;;;;;;13.63;8.55;;;;;;;;;;5034016;28;20033;-62
2022/03/18 00:41:35;;;;;;;16.50;10.25;;;;;;;;;;5034020;28;20105;-64
2022/03/18 00:44:02;;;;;;;13.13;8.65;;;;;;;;;;5033765;28;20026;-61
2022/03/18 00:46:28;;;;;;;14.60;9.48;;;;;;;;;;5033762;28;20017;-64
2022/03/18 00:54:24;;;;;;;13.98;8.60;;;;;;;;;;5039083;28;20040;-61
2022/03/18 00:56:50;;;;;;;15.13;8.50;;;;;;;;;;5053020;28;20399;-62
2022/03/18 00:59:16;;;;;;;14.15;9.55;;;;;;;;;;5053414;28;20045;-61
2022/03/18 01:01:42;;;;;;;13.82;8.48;;;;;;;;;;5053627;28;20067;-67
2022/03/18 01:04:08;;;;;;;15.27;9.10;;;;;;;;;;5052906;28;20025;-61
2022/03/18 01:06:35;;;;;;;15.65;9.25;;;;;;;;;;5053477;28;20017;-60
2022/03/18 01:09:02;;;;;;;17.10;9.00;;;;;;;;;;5053405;28;20055;-61
2022/03/18 01:11:28;;;;;;;13.93;8.80;;;;;;;;;;5053388;28;20021;-64
2022/03/18 01:13:54;;;;;;;13.18;8.13;;;;;;;;;;5046887;28;20063;-65
2022/03/18 01:16:20;;;;;;;14.02;8.77;;;;;;;;;;5053308;28;20484;-66
2022/03/18 01:18:46;;;;;;;13.73;8.95;;;;;;;;;;5053082;28;20036;-63
2022/03/18 01:21:12;;;;;;;15.05;8.90;;;;;;;;;;5053352;28;20017;-62
2022/03/18 01:23:38;;;;;;;14.57;8.18;;;;;;;;;;5053070;28;20131;-62
2022/03/18 01:26:04;;;;;;;12.65;8.23;;;;;;;;;;5053956;28;20024;-61
2022/03/18 01:28:31;;;;;;;14.35;8.90;;;;;;;;;;5053650;28;20021;-62
2022/03/18 01:30:57;;;;;;;14.18;8.73;;;;;;;;;;5053503;28;20487;-61
2022/03/18 01:33:23;;;;;;;13.00;8.73;;;;;;;;;;5053404;28;20028;-63
2022/03/18 01:35:49;;;;;;;13.10;8.70;;;;;;;;;;5053138;28;20027;-62
2022/03/18 01:38:15;;;;;;;14.77;8.95;;;;;;;;;;5053248;28;20119;-61
2022/03/18 01:40:41;;;;;;;13.90;8.80;;;;;;;;;;5052998;28;20491;-61
2022/03/18 01:43:11;;;;;;;16.63;8.50;;;;;;;;;;5053258;28;20075;-63
2022/03/18 01:45:38;;;;;;;14.55;8.93;;;;;;;;;;5068461;28;20079;-61
2022/03/18 01:48:05;;;;;;;16.27;8.57;;;;;;;;;;5053135;28;20021;-61
2022/03/18 01:50:31;;;;;;;14.38;8.73;;;;;;;;;;5052835;28;20021;-61
2022/03/18 01:52:57;;;;;;;13.98;9.10;;;;;;;;;;5052729;28;20484;-61
2022/03/18 01:55:26;;;;;;;16.70;9.00;;;;;;;;;;5052597;28;20039;-62
2022/03/18 01:57:53;;;;;;;13.68;9.25;;;;;;;;;;5052362;28;20064;-64
2022/03/18 02:00:22;;;;;;;12.38;7.88;;;;;;;;;;5052717;28;20423;-62
2022/03/18 02:02:48;;;;;;;14.95;9.20;;;;;;;;;;5052674;28;20036;-61
2022/03/18 02:05:15;;;;;;;15.93;9.73;;;;;;;;;;5052275;28;20017;-62
2022/03/18 02:07:41;;;;;;;14.50;8.43;;;;;;;;;;5050022;28;20396;-63
2022/03/18 02:10:07;;;;;;;13.60;9.20;;;;;;;;;;5032331;28;20099;-61
2022/03/18 02:12:35;;;;;;;12.50;8.30;;;;;;;;;;5032208;28;20105;-63
2022/03/18 02:15:01;;;;;;;15.82;9.48;;;;;;;;;;5030084;28;20018;-63
2022/03/18 02:17:27;;;;;;;12.43;8.38;;;;;;;;;;5032032;28;20087;-67
2022/03/18 02:19:54;;;;;;;12.07;7.88;;;;;;;;;;5032242;28;20473;-65
2022/03/18 02:22:21;;;;;;;12.07;8.07;;;;;;;;;;5032287;28;20071;-62
2022/03/18 02:24:48;;;;;;;12.82;8.43;;;;;;;;;;5032141;28;20091;-62
2022/03/18 02:27:15;;;;;;;13.45;8.90;;;;;;;;;;5032232;28;20025;-61
2022/03/18 02:29:41;;;;;;;13.82;9.13;;;;;;;;;;5032163;28;20036;-62
2022/03/18 02:32:08;;;;;;;12.10;7.65;;;;;;;;;;5048771;28;20439;-61
2022/03/18 02:34:34;;;;;;;13.50;8.60;;;;;;;;;;5067428;28;20052;-62
2022/03/18 02:37:01;;;;;;;13.48;9.10;;;;;;;;;;5051616;28;20025;-62
2022/03/18 02:39:27;;;;;;;14.27;9.43;;;;;;;;;;5045147;28;20032;-62
2022/03/18 02:41:53;;;;;;;12.20;8.18;;;;;;;;;;5051673;28;20021;-62
2022/03/18 02:44:19;;;;;;;12.50;8.50;;;;;;;;;;5051679;28;20067;-61
2022/03/18 02:46:45;;;;;;;11.30;7.82;;;;;;;;;;5066926;28;20016;-61
2022/03/18 02:49:11;;;;;;;11.32;7.88;;;;;;;;;;5051698;28;20124;-61
2022/03/18 02:51:37;;;;;;;13.75;7.97;;;;;;;;;;5051597;28;20048;-62
2022/03/18 02:54:07;;;;;;;13.25;8.98;;;;;;;;;;5051664;28;20017;-61
2022/03/18 02:56:34;;;;;;;11.70;8.13;;;;;;;;;;5051364;28;20475;-63
2022/03/18 02:59:00;;;;;;;13.55;8.38;;;;;;;;;;5032886;28;20053;-62
2022/03/18 03:01:27;;;;;;;12.57;8.43;;;;;;;;;;5031520;28;20435;-62
2022/03/18 03:03:53;;;;;;;14.15;9.20;;;;;;;;;;5031569;28;20389;-64
2022/03/18 03:09:04;;;;;;;13.40;8.90;;;;;;;;;;5031925;28;20080;-61
2022/03/18 03:11:30;;;;;;;11.73;8.10;;;;;;;;;;5031366;28;20445;-63
2022/03/18 03:13:56;;;;;;;13.10;8.57;;;;;;;;;;5035986;28;20025;-61
2022/03/18 03:16:23;;;;;;;15.25;8.82;;;;;;;;;;5031502;28;20017;-61
2022/03/18 03:18:49;;;;;;;16.40;9.40;;;;;;;;;;5031273;28;20030;-61
2022/03/18 03:21:15;;;;;;;12.85;8.25;;;;;;;;;;5031532;28;20350;-61
2022/03/18 03:23:42;;;;;;;16.10;10.40;;;;;;;;;;5031423;28;20021;-62
2022/03/18 03:26:08;;;;;;;12.77;8.73;;;;;;;;;;5029834;28;20032;-62
2022/03/18 03:28:34;;;;;;;13.40;9.35;;;;;;;;;;5031075;28;20093;-66
2022/03/18 03:31:00;;;;;;;14.10;8.27;;;;;;;;;;5029965;28;20033;-65
2022/03/18 03:33:27;;;;;;;13.55;9.25;;;;;;;;;;5029864;28;20018;-63
2022/03/18 03:35:53;;;;;;;15.18;8.80;;;;;;;;;;5031007;28;20026;-67
2022/03/18 03:38:21;;;;;;;13.32;8.70;;;;;;;;;;5031034;28;20156;-63
2022/03/18 03:40:47;;;;;;;13.70;9.20;;;;;;;;;;5031163;28;20087;-62
2022/03/18 03:43:14;;;;;;;13.93;8.55;;;;;;;;;;5031225;28;20554;-64
2022/03/18 03:45:40;;;;;;;13.70;9.18;;;;;;;;;;5031047;28;20060;-62
2022/03/18 03:48:07;;;;;;;15.30;9.32;;;;;;;;;;5030812;28;20029;-62
2022/03/18 03:50:33;;;;;;;12.25;8.13;;;;;;;;;;5029739;28;20021;-64
2022/03/18 03:52:59;;;;;;;13.85;8.52;;;;;;;;;;5031257;28;20025;-61
2022/03/18 03:55:26;;;;;;;13.32;8.02;;;;;;;;;;5031090;28;20040;-62
2022/03/18 03:57:52;;;;;;;14.30;9.18;;;;;;;;;;5031177;28;20033;-64
2022/03/18 04:00:18;;;;;;;15.18;9.38;;;;;;;;;;5030776;28;20132;-61
2022/03/18 04:02:44;;;;;;;13.55;7.88;;;;;;;;;;5030927;28;20037;-62
2022/03/18 04:05:10;;;;;;;13.13;8.27;;;;;;;;;;5030898;28;20029;-61
2022/03/18 04:07:40;;;;;;;15.95;9.27;;;;;;;;;;5030997;28;20177;-61
2022/03/18 04:10:08;;;;;;;14.45;8.15;;;;;;;;;;5030871;28;20017;-61
2022/03/18 04:12:34;;;;;;;14.05;8.25;;;;;;;;;;5030675;28;20116;-62
2022/03/18 04:15:00;;;;;;;12.98;8.15;;;;;;;;;;5030570;28;20079;-61
2022/03/18 04:17:26;;;;;;;12.77;8.48;;;;;;;;;;5030478;28;20049;-61
2022/03/18 04:19:55;;;;;;;14.07;8.85;;;;;;;;;;5030656;28;20029;-61
2022/03/18 04:22:22;;;;;;;13.15;8.10;;;;;;;;;;5030567;28;20021;-61
2022/03/18 04:24:48;;;;;;;13.80;8.48;;;;;;;;;;5030375;28;20485;-62
2022/03/18 04:27:14;;;;;;;11.48;7.65;;;;;;;;;;5030504;28;20017;-62
2022/03/18 04:29:40;;;;;;;13.52;8.40;;;;;;;;;;5029720;28;20569;-62
2022/03/18 04:32:06;;;;;;;12.68;8.60;;;;;;;;;;5030643;28;20587;-61
2022/03/18 04:34:32;;;;;;;12.20;8.10;;;;;;;;;;5030755;28;20033;-62
2022/03/18 04:36:58;;;;;;;12.20;7.65;;;;;;;;;;5030638;28;20050;-63
2022/03/18 04:39:24;;;;;;;12.82;7.78;;;;;;;;;;5033252;28;20515;-61
2022/03/18 04:41:50;;;;;;;11.95;8.52;;;;;;;;;;5034084;28;20533;-63
2022/03/18 04:44:16;;;;;;;13.55;8.30;;;;;;;;;;5034069;28;20385;-65
2022/03/18 04:46:43;;;;;;;12.07;7.68;;;;;;;;;;5033913;28;20037;-68
2022/03/18 04:49:09;;;;;;;11.63;7.32;;;;;;;;;;5049477;28;20048;-65
2022/03/18 04:51:35;;;;;;;11.18;7.13;;;;;;;;;;5033820;28;20028;-62
2022/03/18 04:54:01;;;;;;;10.77;7.05;;;;;;;;;;5033849;28;20104;-62
2022/03/18 04:59:12;;;;;;;13.15;8.73;;;;;;;;;;5033540;28;20480;-61
2022/03/18 05:01:38;;;;;;;13.57;7.78;;;;;;;;;;5033810;28;20099;-62
2022/03/18 05:04:04;;;;;;;12.50;7.43;;;;;;;;;;5033635;28;20033;-62
2022/03/18 05:06:30;;;;;;;10.88;7.05;;;;;;;;;;5048850;28;20544;-62
2022/03/18 05:08:56;;;;;;;13.23;7.72;;;;;;;;;;5033209;28;20076;-62
2022/03/18 05:11:22;;;;;;;12.02;7.47;;;;;;;;;;5033343;28;20049;-64
2022/03/18 05:13:48;;;;;;;11.23;7.57;;;;;;;;;;5033338;28;20037;-64
2022/03/18 05:16:15;;;;;;;11.60;7.63;;;;;;;;;;5045890;28;20021;-66
2022/03/18 05:18:41;;;;;;;13.20;7.28;;;;;;;;;;5053172;28;20033;-66
2022/03/18 05:21:07;;;;;;;13.27;7.03;;;;;;;;;;5053212;28;20460;-61
2022/03/18 05:23:33;;;;;;;12.27;7.80;;;;;;;;;;5053218;28;20029;-65
2022/03/18 05:25:59;;;;;;;12.73;7.45;;;;;;;;;;5053033;28;20044;-62
2022/03/18 05:28:26;;;;;;;14.40;6.88;;;;;;;;;;5053091;28;20095;-62
2022/03/18 05:30:52;;;;;;;12.07;7.05;;;;;;;;;;5052901;28;20017;-61
2022/03/18 05:33:19;;;;;;;15.23;7.78;;;;;;;;;;5053285;28;20522;-61
2022/03/18 05:35:45;;;;;;;14.23;7.47;;;;;;;;;;5052973;28;20058;-63
2022/03/18 05:38:11;;;;;;;14.30;7.97;;;;;;;;;;5052989;28;20037;-63
2022/03/18 05:40:37;;;;;;;16.23;9.63;;;;;;;;;;5052970;28;20053;-61
2022/03/18 05:43:04;;;;;;;14.70;7.75;;;;;;;;;;5052963;28;20025;-62
2022/03/18 05:45:30;;;;;;;11.35;7.00;;;;;;;;;;5052691;28;20029;-64
2022/03/18 05:47:56;;;;;;;11.85;7.30;;;;;;;;;;5067985;28;20051;-62
2022/03/18 05:50:22;;;;;;;13.35;8.15;;;;;;;;;;5052109;28;20041;-66
2022/03/18 05:52:48;;;;;;;16.58;8.10;;;;;;;;;;5052376;28;20025;-66
2022/03/18 05:55:14;;;;;;;19.40;9.00;;;;;;;;;;5052567;28;20029;-64
2022/03/18 05:57:40;;;;;;;12.48;7.40;;;;;;;;;;5052095;28;20067;-64
2022/03/18 06:00:07;;;;;;;12.10;6.95;;;;;;;;;;5052626;28;20570;-63
2022/03/18 06:02:35;;;;;;;13.85;7.20;;;;;;;;;;5051280;28;20021;-63
2022/03/18 06:05:02;;;;;;;16.02;7.68;;;;;;;;;;5052360;28;20179;-65
2022/03/18 06:07:28;;;;;;;13.45;6.40;;;;;;;;;;5052530;28;20053;-65
2022/03/18 06:12:38;;;;;;;20.52;7.43;;;;;;;;;;5052662;28;20060;-67
2022/03/18 06:15:05;;;;;;;16.10;7.75;;;;;;;;;;5052575;28;20425;-62
2022/03/18 06:17:31;;;;;;;18.45;7.30;;;;;;;;;;5052099;28;20037;-62
2022/03/18 06:19:57;;;;;;;13.65;7.85;;;;;;;;;;5051746;28;20036;-67
2022/03/18 06:22:23;;;;;;;11.75;6.88;;;;;;;;;;5051963;28;20024;-62
2022/03/18 06:24:49;;;;;;;14.82;7.55;;;;;;;;;;5050629;28;20077;-65
2022/03/18 06:27:15;;;;;;;14.07;7.30;;;;;;;;;;5052022;28;20024;-62
2022/03/18 06:29:43;;;;;;;17.27;7.13;;;;;;;;;;5051763;28;20017;-65
2022/03/18 06:32:09;;;;;;;13.95;6.28;;;;;;;;;;5050037;28;20166;-65
2022/03/18 06:34:35;;;;;;;13.00;6.88;;;;;;;;;;5051470;28;20032;-66
2022/03/18 06:37:01;;;;;;;18.25;7.50;;;;;;;;;;5051606;28;20021;-65
2022/03/18 06:39:28;;;;;;;11.45;6.55;;;;;;;;;;5046959;28;20033;-63
2022/03/18 06:41:54;;;;;;;13.27;7.22;;;;;;;;;;5051004;28;20052;-63
2022/03/18 06:44:20;;;;;;;22.33;6.78;;;;;;;;;;5050578;28;20483;-62
2022/03/18 06:46:47;;;;;;;17.50;5.90;;;;;;;;;;5050404;28;20071;-62
2022/03/18 06:49:13;;;;;;;13.88;6.18;;;;;;;;;;5050632;28;20033;-65
2022/03/18 06:51:39;;;;;;;15.50;6.72;;;;;;;;;;5050690;28;20021;-64
2022/03/18 06:54:06;;;;;;;19.00;6.15;;;;;;;;;;5050748;28;20024;-66
2022/03/18 06:56:32;;;;;;;10.43;5.88;;;;;;;;;;5050486;28;20092;-64
2022/03/18 06:58:58;;;;;;;13.88;6.85;;;;;;;;;;5050005;28;20041;-62
2022/03/18 07:01:25;;;;;;;17.30;7.55;;;;;;;;;;5050120;28;20092;-66
2022/03/18 07:03:51;;;;;;;12.10;6.95;;;;;;;;;;5050645;28;20013;-63
2022/03/18 07:06:17;;;;;;;17.13;6.70;;;;;;;;;;5050530;28;20013;-63
2022/03/18 07:08:44;;;;;;;10.88;6.13;;;;;;;;;;5050389;28;20021;-62
2022/03/18 07:11:13;;;;;;;11.52;6.03;;;;;;;;;;5050229;28;20013;-63
2022/03/18 07:13:40;;;;;;;13.82;6.35;;;;;;;;;;5050536;28;20017;-64
2022/03/18 07:18:50;;;;;;;12.35;7.13;;;;;;;;;;5050896;28;20048;-65
2022/03/18 07:21:16;;;;;;;13.52;6.90;;;;;;;;;;5048051;28;20021;-66
2022/03/18 07:23:42;;;;;;;13.63;6.72;;;;;;;;;;5031236;28;20025;-65
2022/03/18 07:26:08;;;;;;;11.18;5.82;;;;;;;;;;5048912;28;20028;-62
2022/03/18 07:28:34;;;;;;;13.10;6.18;;;;;;;;;;5050880;28;20056;-63
2022/03/18 07:31:01;;;;;;;10.90;6.43;;;;;;;;;;5050879;28;20025;-63
2022/03/18 07:33:27;;;;;;;11.00;5.75;;;;;;;;;;5041176;28;20029;-62
2022/03/18 07:35:53;;;;;;;9.00;5.63;;;;;;;;;;5042515;28;20484;-63
2022/03/18 07:38:20;;;;;;;10.73;5.88;;;;;;;;;;5050560;28;20052;-61
2022/03/18 07:40:46;;;;;;;9.63;5.80;;;;;;;;;;5050650;28;20379;-60
2022/03/18 07:43:13;;;;;;;11.32;5.88;;;;;;;;;;5050664;28;20029;-62
2022/03/18 07:45:39;;;;;;;8.35;5.35;;;;;;;;;;5049108;28;20656;-62
2022/03/18 07:48:07;;;;;;;12.27;5.95;;;;;;;;;;5050495;28;20037;-61
2022/03/18 07:50:34;;;;;;;10.52;5.78;;;;;;;;;;5050566;28;20027;-63
2022/03/18 07:53:04;;;;;;;10.93;5.90;;;;;;;;;;5050374;28;20500;-64
2022/03/18 07:55:31;;;;;;;12.80;7.03;;;;;;;;;;5050473;28;20033;-62
2022/03/18 07:57:58;;;;;;;10.93;5.68;;;;;;;;;;5050463;28;20116;-64
2022/03/18 08:00:24;;;;;;;11.27;5.55;;;;;;;;;;5050355;28;20383;-62
2022/03/18 08:02:52;;;;;;;11.82;6.10;;;;;;;;;;5050461;28;20025;-62
2022/03/18 08:05:19;;;;;;;14.95;6.07;;;;;;;;;;5050683;28;20051;-65
2022/03/18 08:07:46;;;;;;;12.85;6.65;;;;;;;;;;5050688;28;20052;-65
2022/03/18 08:10:13;;;;;;;12.35;6.30;;;;;;;;;;5049758;28;20067;-66
2022/03/18 08:12:40;;;;;;;14.32;6.65;;;;;;;;;;5050532;28;20025;-62
2022/03/18 08:15:08;;;;;;;15.82;6.90;;;;;;;;;;5053128;28;20013;-64
2022/03/18 08:17:34;;;;;;;10.80;5.70;;;;;;;;;;5053382;28;20120;-62
2022/03/18 08:20:00;;;;;;;12.38;5.88;;;;;;;;;;5053445;28;20029;-65
2022/03/18 08:22:27;;;;;;;12.07;6.75;;;;;;;;;;5051794;28;20052;-62
2022/03/18 08:24:53;;;;;;;12.95;6.32;;;;;;;;;;5053995;28;20025;-64
2022/03/18 08:27:20;;;;;;;16.17;5.85;;;;;;;;;;5054158;28;20028;-62
2022/03/18 08:29:47;;;;;;;10.85;6.30;;;;;;;;;;5054330;28;20029;-66
2022/03/18 08:32:14;;;;;;;10.88;5.97;;;;;;;;;;5053959;28;20021;-65
2022/03/18 08:34:40;;;;;;;10.55;6.22;;;;;;;;;;5053985;28;20474;-62
2022/03/18 08:37:06;;;;;;;12.23;6.50;;;;;;;;;;5054179;28;20029;-63
2022/03/18 08:39:33;;;;;;;12.93;6.43;;;;;;;;;;5054071;28;20475;-66
2022/03/18 08:41:59;;;;;;;9.90;5.97;;;;;;;;;;5053985;28;20025;-62
2022/03/18 08:44:25;;;;;;;10.65;6.25;;;;;;;;;;5053746;28;20021;-62
2022/03/18 08:46:51;;;;;;;10.25;6.18;;;;;;;;;;5052912;28;20064;-61
2022/03/18 08:49:17;;;;;;;10.05;6.05;;;;;;;;;;5053769;28;20031;-62
2022/03/18 08:51:43;;;;;;;9.57;5.70;;;;;;;;;;5053821;28;20025;-62
2022/03/18 08:54:09;;;;;;;9.80;5.22;;;;;;;;;;5053946;28;20549;-62
2022/03/18 08:56:36;;;;;;;11.98;7.03;;;;;;;;;;5053888;28;20366;-65
2022/03/18 08:59:06;;;;;;;11.35;5.95;;;;;;;;;;5053603;28;20053;-62
2022/03/18 09:01:32;;;;;;;14.20;6.65;;;;;;;;;;5053528;28;20036;-66
2022/03/18 09:03:58;;;;;;;11.10;6.35;;;;;;;;;;5053211;28;20033;-65
2022/03/18 09:06:26;;;;;;;9.63;5.70;;;;;;;;;;5051403;28;20041;-62
2022/03/18 09:08:52;;;;;;;11.82;5.82;;;;;;;;;;5051274;28;20059;-63
2022/03/18 09:11:18;;;;;;;10.27;6.43;;;;;;;;;;5051238;28;20045;-62
2022/03/18 09:13:44;;;;;;;13.10;6.30;;;;;;;;;;5051221;28;20029;-64
2022/03/18 09:16:12;;;;;;;10.32;6.18;;;;;;;;;;5051294;28;20033;-65
2022/03/18 09:18:38;;;;;;;11.90;7.10;;;;;;;;;;5051376;28;20025;-65
2022/03/18 09:21:04;;;;;;;12.07;7.10;;;;;;;;;;5050528;28;20476;-62
2022/03/18 09:23:30;;;;;;;11.98;6.32;;;;;;;;;;5043580;28;20553;-66
2022/03/18 09:25:57;;;;;;;12.50;6.70;;;;;;;;;;5032107;28;20113;-64
2022/03/18 09:28:23;;;;;;;9.73;6.38;;;;;;;;;;5041451;28;20013;-65
2022/03/18 09:30:49;;;;;;;12.05;7.28;;;;;;;;;;5052056;28;20029;-65
2022/03/18 09:33:15;;;;;;;10.50;6.78;;;;;;;;;;5052022;28;20068;-65
2022/03/18 09:35:43;;;;;;;11.75;7.13;;;;;;;;;;5044332;28;20017;-64
2022/03/18 09:38:09;;;;;;;11.65;6.45;;;;;;;;;;5030865;28;20026;-65
2022/03/18 09:40:37;;;;;;;13.85;6.18;;;;;;;;;;5030525;28;20125;-62
2022/03/18 09:43:07;;;;;;;11.60;6.80;;;;;;;;;;5031892;28;20022;-66
2022/03/18 09:45:35;;;;;;;15.02;7.32;;;;;;;;;;5031382;28;20032;-63
2022/03/18 09:48:03;;;;;;;12.77;6.90;;;;;;;;;;5031902;28;20029;-62
2022/03/18 09:50:30;;;;;;;13.48;7.00;;;;;;;;;;5046867;28;20087;-64
2022/03/18 09:52:56;;;;;;;13.35;7.60;;;;;;;;;;5031496;28;20493;-62
2022/03/18 09:55:22;;;;;;;13.00;7.15;;;;;;;;;;5031654;28;20056;-65
2022/03/18 09:57:48;;;;;;;14.57;9.27;;;;;;;;;;5031413;28;20025;-65
2022/03/18 10:00:15;;;;;;;116.30;14.85;;;;;;;;;;5039820;28;20095;-63
2022/03/18 10:02:41;;;;;;;13.02;7.97;;;;;;;;;;5047894;28;20035;-65
2022/03/18 10:05:13;;;;;;;16.90;8.52;;;;;;;;;;5050726;28;20021;-61
2022/03/18 10:07:39;;;;;;;16.15;8.20;;;;;;;;;;5048314;28;20540;-65
2022/03/18 10:10:07;;;;;;;14.77;7.80;;;;;;;;;;5047992;28;20116;-63
2022/03/18 10:12:37;;;;;;;15.45;7.93;;;;;;;;;;5049342;28;20025;-62
2022/03/18 10:15:04;;;;;;;15.25;8.23;;;;;;;;;;5050504;28;20017;-63
2022/03/18 10:17:45;;;;;;;16.55;8.90;;;;;;;;;;5051193;28;20032;-66
2022/03/18 10:20:29;;;;;;;16.67;8.63;;;;;;;;;;5051573;28;20503;-62
2022/03/18 10:22:56;;;;;;;14.63;8.38;;;;;;;;;;5051584;28;20380;-66
2022/03/18 10:25:35;;;;;;;15.70;7.78;;;;;;;;;;5051791;28;20053;-63
2022/03/18 10:28:01;;;;;;;14.63;8.52;;;;;;;;;;5052239;28;20056;-63
2022/03/18 10:30:27;;;;;;;18.90;9.10;;;;;;;;;;5051868;28;20112;-65
2022/03/18 10:32:53;;;;;;;19.20;8.48;;;;;;;;;;5051983;28;20431;-63
2022/03/18 10:38:35;;;;;;;22.73;9.02;;;;;;;;;;5051570;28;20134;-61
2022/03/18 10:41:07;;;;;;;12.88;8.68;;;;;;;;;;5065628;28;20021;-64
2022/03/18 10:43:52;;;;;;;14.38;8.00;;;;;;;;;;5052164;28;20021;-63
2022/03/18 10:46:18;;;;;;;18.63;8.15;;;;;;;;;;5051997;28;20021;-62
2022/03/18 10:49:03;;;;;;;18.02;8.02;;;;;;;;;;5052123;28;20086;-63
2022/03/18 10:51:30;;;;;;;15.15;8.90;;;;;;;;;;5051654;28;20046;-63
2022/03/18 10:53:56;;;;;;;11.68;7.07;;;;;;;;;;5051897;28;20016;-62
2022/03/18 10:56:22;;;;;;;15.82;7.93;;;;;;;;;;5040931;28;20032;-62
2022/03/18 10:58:48;;;;;;;13.45;7.55;;;;;;;;;;5031637;28;20149;-62
2022/03/18 11:01:15;;;;;;;15.50;8.80;;;;;;;;;;5031358;28;20104;-62
2022/03/18 11:03:41;;;;;;;12.93;8.60;;;;;;;;;;5030853;28;20022;-61
2022/03/18 11:06:07;;;;;;;12.15;8.13;;;;;;;;;;5030081;28;20623;-62
2022/03/18 11:08:37;;;;;;;14.18;8.23;;;;;;;;;;5031511;28;20061;-60
2022/03/18 11:11:10;;;;;;;15.45;8.55;;;;;;;;;;5031754;28;20029;-62
2022/03/18 11:14:00;;;;;;;12.55;7.70;;;;;;;;;;5031620;28;20017;-64
2022/03/18 11:16:28;;;;;;;11.75;7.28;;;;;;;;;;5042076;28;20559;-65
2022/03/18 11:18:55;;;;;;;13.73;8.55;;;;;;;;;;5050748;28;20033;-62
2022/03/18 11:21:22;;;;;;;14.23;8.18;;;;;;;;;;5050688;28;20035;-65
2022/03/18 11:23:48;;;;;;;13.95;7.85;;;;;;;;;;5065046;28;20029;-64
2022/03/18 11:26:19;;;;;;;17.40;7.80;;;;;;;;;;5033962;28;20025;-61
2022/03/18 11:28:45;;;;;;;15.32;8.15;;;;;;;;;;5030868;28;20219;-62
2022/03/18 11:31:19;;;;;;;17.65;8.68;;;;;;;;;;5031031;28;20546;-66
2022/03/18 11:34:03;;;;;;;19.50;10.35;;;;;;;;;;5030645;28;20044;-64
2022/03/18 11:36:30;;;;;;;14.90;8.60;;;;;;;;;;5030710;28;20025;-64
2022/03/18 11:39:02;;;;;;;20.85;9.10;;;;;;;;;;5030892;28;20072;-65
2022/03/18 11:41:48;;;;;;;14.85;8.65;;;;;;;;;;5030784;28;20014;-63
2022/03/18 11:44:34;;;;;;;14.45;8.68;;;;;;;;;;5045870;28;20388;-66
2022/03/18 11:47:19;;;;;;;12.52;8.23;;;;;;;;;;5041592;28;20102;-65
2022/03/18 11:49:45;;;;;;;15.68;8.65;;;;;;;;;;5058108;28;20021;-61
2022/03/18 11:52:11;;;;;;;14.57;9.38;;;;;;;;;;5052980;28;20025;-61
2022/03/18 11:54:53;;;;;;;13.85;8.63;;;;;;;;;;5054254;28;20039;-62
2022/03/18 11:57:33;;;;;;;14.27;8.20;;;;;;;;;;5035968;28;20538;-62
2022/03/18 12:00:05;;;;;;;16.00;8.75;;;;;;;;;;5034469;28;20128;-62
2022/03/18 12:02:35;;;;;;;18.15;8.73;;;;;;;;;;5034263;28;20020;-61
2022/03/18 12:05:02;;;;;;;15.07;8.07;;;;;;;;;;5033980;28;20349;-62
2022/03/18 12:07:30;;;;;;;19.48;8.23;;;;;;;;;;5034537;28;20136;-63
2022/03/18 12:10:06;;;;;;;51.22;9.93;;;;;;;;;;5034854;28;20025;-63
2022/03/18 12:12:36;;;;;;;21.02;8.55;;;;;;;;;;5034977;28;20100;-62
2022/03/18 12:15:10;;;;;;;14.50;8.48;;;;;;;;;;5034810;28;20018;-62
2022/03/18 12:17:56;;;;;;;17.88;9.40;;;;;;;;;;5048233;28;20388;-62
2022/03/18 12:20:22;;;;;;;22.25;10.27;;;;;;;;;;5054927;28;20029;-62
2022/03/18 12:22:49;;;;;;;16.67;8.75;;;;;;;;;;5054613;28;20108;-61
2022/03/18 12:25:16;;;;;;;19.00;9.35;;;;;;;;;;5054599;28;20025;-61
2022/03/18 12:27:44;;;;;;;17.70;9.20;;;;;;;;;;5040082;28;20029;-62
2022/03/18 12:30:15;;;;;;;18.92;9.10;;;;;;;;;;5049894;28;20025;-64
2022/03/18 12:32:51;;;;;;;15.18;8.35;;;;;;;;;;5034659;28;20377;-61
2022/03/18 12:35:18;;;;;;;15.32;8.50;;;;;;;;;;5034504;28;20021;-62
2022/03/18 12:37:47;;;;;;;13.98;8.73;;;;;;;;;;5036250;28;20040;-65
2022/03/18 12:40:15;;;;;;;12.82;7.30;;;;;;;;;;5052959;28;20083;-61
2022/03/18 12:42:48;;;;;;;16.02;8.82;;;;;;;;;;5054053;28;20455;-64
2022/03/18 12:45:23;;;;;;;16.13;9.52;;;;;;;;;;5053941;28;20024;-64
2022/03/18 12:47:50;;;;;;;15.32;10.10;;;;;;;;;;5052792;28;20726;-64
2022/03/18 12:50:16;;;;;;;18.50;11.15;;;;;;;;;;5053887;28;20059;-65
2022/03/18 12:52:45;;;;;;;15.82;9.68;;;;;;;;;;5053861;28;20020;-62
2022/03/18 12:55:12;;;;;;;16.85;9.68;;;;;;;;;;5052900;28;20039;-63
2022/03/18 12:57:39;;;;;;;16.05;8.68;;;;;;;;;;5033600;28;20079;-67
2022/03/18 13:00:08;;;;;;;16.10;9.45;;;;;;;;;;5032879;28;20053;-69
2022/03/18 13:02:37;;;;;;;14.13;8.05;;;;;;;;;;5033863;28;20366;-65
2022/03/18 13:05:05;;;;;;;14.98;8.38;;;;;;;;;;5033615;28;20087;-65
2022/03/18 13:07:32;;;;;;;14.48;8.38;;;;;;;;;;5033718;28;20018;-65
2022/03/18 13:09:58;;;;;;;13.63;8.27;;;;;;;;;;5033388;28;20068;-65
2022/03/18 13:12:29;;;;;;;13.00;7.68;;;;;;;;;;5033697;28;20026;-64
2022/03/18 13:14:56;;;;;;;14.48;9.32;;;;;;;;;;5033531;28;20026;-65
2022/03/18 13:17:30;;;;;;;12.18;7.45;;;;;;;;;;5033115;28;20022;-64
2022/03/18 13:19:56;;;;;;;13.63;8.05;;;;;;;;;;5032997;28;20480;-65
2022/03/18 13:22:23;;;;;;;13.40;8.23;;;;;;;;;;5032670;28;20560;-64
2022/03/18 13:24:53;;;;;;;15.57;8.63;;;;;;;;;;5032763;28;20476;-62
2022/03/18 13:27:21;;;;;;;12.05;7.65;;;;;;;;;;5032985;28;20048;-64
2022/03/18 13:32:51;;;;;;;16.92;9.05;;;;;;;;;;5033409;28;20040;-63
2022/03/18 13:35:19;;;;;;;14.82;8.48;;;;;;;;;;5033238;28;20072;-61
2022/03/18 13:38:04;;;;;;;15.82;8.30;;;;;;;;;;5033141;28;20034;-62
2022/03/18 13:40:30;;;;;;;14.35;8.52;;;;;;;;;;5032521;28;20050;-63
2022/03/18 13:43:01;;;;;;;16.30;8.48;;;;;;;;;;5032167;28;20018;-66
2022/03/18 13:45:28;;;;;;;14.43;8.35;;;;;;;;;;5034072;28;20025;-63
2022/03/18 13:47:54;;;;;;;13.75;7.97;;;;;;;;;;5052747;28;20033;-65
2022/03/18 13:50:20;;;;;;;14.73;7.95;;;;;;;;;;5052371;28;20095;-67
2022/03/18 13:52:48;;;;;;;12.57;8.52;;;;;;;;;;5052811;28;20480;-63
2022/03/18 13:55:34;;;;;;;13.55;7.90;;;;;;;;;;5051457;28;20032;-64
2022/03/18 13:58:04;;;;;;;12.00;8.30;;;;;;;;;;5032820;28;20040;-63
2022/03/18 14:00:35;;;;;;;15.02;9.00;;;;;;;;;;5032466;28;20374;-61
2022/03/18 14:03:10;;;;;;;12.50;8.45;;;;;;;;;;5032769;28;20041;-67
2022/03/18 14:05:36;;;;;;;13.40;8.52;;;;;;;;;;5032559;28;20461;-62
2022/03/18 14:08:03;;;;;;;13.15;7.20;;;;;;;;;;5032412;28;20115;-62
2022/03/18 14:12:08;;;;;;;15.65;8.75;;;;;;;;;;5031338;28;20026;-65
2022/03/18 14:13:41;;;;;;;14.35;7.97;;;;;;;;;;5032383;28;20113;-62
2022/03/18 14:16:13;;;;;;;13.63;7.93;;;;;;;;;;5031284;28;20029;-61
2022/03/18 14:18:40;;;;;;;11.07;7.28;;;;;;;;;;5032339;28;20120;-62
2022/03/18 14:21:07;;;;;;;12.32;7.88;;;;;;;;;;5032405;28;20025;-62
2022/03/18 14:23:37;;;;;;;14.27;7.68;;;;;;;;;;5032382;28;20427;-62
2022/03/18 14:26:07;;;;;;;14.70;8.50;;;;;;;;;;5032263;28;20067;-61
2022/03/18 14:28:34;;;;;;;16.23;8.65;;;;;;;;;;5032216;28;20108;-61
2022/03/18 14:31:00;;;;;;;13.77;7.45;;;;;;;;;;5032157;28;20052;-68
2022/03/18 14:33:27;;;;;;;11.15;7.15;;;;;;;;;;5032504;28;20033;-67
2022/03/18 14:35:55;;;;;;;12.07;7.75;;;;;;;;;;5032134;28;20028;-66
2022/03/18 14:38:22;;;;;;;11.27;7.53;;;;;;;;;;5031844;28;20043;-64
2022/03/18 14:40:49;;;;;;;14.02;8.38;;;;;;;;;;5046740;28;20022;-64
2022/03/18 14:43:15;;;;;;;10.80;6.80;;;;;;;;;;5031100;28;20072;-64
2022/03/18 14:45:42;;;;;;;13.30;6.80;;;;;;;;;;5030978;28;20108;-62
2022/03/18 14:48:08;;;;;;;11.98;7.20;;;;;;;;;;5031102;28;20080;-61
2022/03/18 14:50:38;;;;;;;11.63;7.40;;;;;;;;;;5030879;28;20033;-63
2022/03/18 14:53:08;;;;;;;10.82;7.25;;;;;;;;;;5031338;28;20022;-61
2022/03/18 14:58:19;;;;;;;13.93;7.10;;;;;;;;;;5030890;28;20115;-64